createdAt,value
2023-04-20T00:00:58.917Z,32.20
2023-04-20T00:03:26.710Z,28.20
2023-04-20T00:05:53.605Z,29.27
2023-04-20T00:08:20.319Z,29.52
2023-04-20T00:10:46.871Z,31.38
2023-04-20T00:13:13.398Z,30.15
2023-04-20T00:15:39.888Z,34.85
2023-04-20T00:18:06.546Z,27.08
2023-04-20T00:20:33.482Z,36.97
2023-04-20T00:22:59.984Z,33.53
2023-04-20T00:25:26.539Z,30.10
2023-04-20T00:27:52.993Z,27.38
2023-04-20T00:30:19.461Z,29.88
2023-04-20T00:32:46.227Z,34.95
2023-04-20T00:35:12.741Z,34.28
2023-04-20T00:37:39.184Z,37.25
2023-04-20T00:40:06.757Z,32.78
2023-04-20T00:42:33.285Z,38.42
2023-04-20T00:44:59.848Z,39.85
2023-04-20T00:47:26.327Z,40.90
2023-04-20T00:49:53.330Z,42.05
2023-04-20T00:52:21.127Z,39.42
2023-04-20T00:54:47.638Z,38.35
2023-04-20T00:57:14.400Z,42.28
2023-04-20T00:59:41.153Z,39.03
2023-04-20T01:02:08.253Z,41.30
2023-04-20T01:04:36.290Z,42.30
2023-04-20T01:07:02.984Z,39.78
2023-04-20T01:09:29.524Z,41.00
2023-04-20T01:11:56.606Z,42.08
2023-04-20T01:14:23.406Z,42.40
2023-04-20T01:16:52.023Z,43.38
2023-04-20T01:19:18.809Z,39.70
2023-04-20T01:21:45.508Z,43.22
2023-04-20T01:24:11.960Z,41.38
2023-04-20T01:26:38.742Z,41.05
2023-04-20T01:29:05.306Z,42.67
2023-04-20T01:31:31.877Z,40.53
2023-04-20T01:33:58.688Z,42.03
2023-04-20T01:36:25.335Z,41.97
2023-04-20T01:38:51.876Z,41.53
2023-04-20T01:41:18.446Z,38.13
2023-04-20T01:43:44.943Z,43.17
2023-04-20T01:46:11.433Z,36.72
2023-04-20T01:48:37.905Z,35.58
2023-04-20T01:51:04.401Z,28.73
2023-04-20T01:53:30.864Z,21.45
2023-04-20T01:55:57.341Z,22.60
2023-04-20T01:58:23.800Z,22.35
2023-04-20T02:00:50.507Z,26.45
2023-04-20T02:03:17.114Z,19.63
2023-04-20T02:05:43.667Z,17.30
2023-04-20T02:08:11.372Z,19.88
2023-04-20T02:10:37.923Z,16.90
2023-04-20T02:13:04.592Z,17.35
2023-04-20T02:15:31.267Z,22.45
2023-04-20T02:17:58.133Z,23.45
2023-04-20T02:20:24.800Z,18.15
2023-04-20T02:22:51.254Z,20.60
2023-04-20T02:25:18.962Z,19.98
2023-04-20T02:27:45.470Z,20.52
2023-04-20T02:30:12.515Z,20.55
2023-04-20T02:32:39.041Z,19.92
2023-04-20T02:35:05.740Z,18.35
2023-04-20T02:37:32.290Z,20.67
2023-04-20T02:39:58.740Z,21.80
2023-04-20T02:42:25.315Z,20.05
2023-04-20T02:44:52.879Z,21.23
2023-04-20T02:47:19.597Z,19.83
2023-04-20T02:49:46.085Z,20.25
2023-04-20T02:52:12.734Z,21.02
2023-04-20T02:54:39.220Z,19.88
2023-04-20T02:57:05.767Z,20.25
2023-04-20T02:59:32.271Z,17.88
2023-04-20T03:01:58.835Z,22.58
2023-04-20T03:04:27.901Z,22.83
2023-04-20T03:06:54.683Z,20.05
2023-04-20T03:09:22.237Z,15.85
2023-04-20T03:11:49.110Z,20.90
2023-04-20T03:14:15.805Z,23.65
2023-04-20T03:16:42.382Z,22.05
2023-04-20T03:19:08.940Z,20.75
2023-04-20T03:21:35.474Z,16.27
2023-04-20T03:24:02.008Z,21.55
2023-04-20T03:26:29.181Z,18.00
2023-04-20T03:28:55.704Z,18.83
2023-04-20T03:31:22.287Z,20.13
2023-04-20T03:33:53.086Z,21.02
2023-04-20T03:36:21.113Z,22.95
2023-04-20T03:38:47.546Z,16.98
2023-04-20T03:41:14.268Z,19.65
2023-04-20T03:43:41.774Z,19.60
2023-04-20T03:46:09.666Z,20.50
2023-04-20T03:48:36.255Z,20.83
2023-04-20T03:51:03.010Z,21.70
2023-04-20T03:53:29.492Z,29.35
2023-04-20T03:55:56.198Z,22.60
2023-04-20T03:58:22.906Z,17.70
2023-04-20T04:00:49.426Z,19.50
2023-04-20T04:03:16.137Z,25.20
2023-04-20T04:05:42.744Z,19.45
2023-04-20T04:08:09.251Z,19.95
2023-04-20T04:10:35.753Z,22.90
2023-04-20T04:13:02.243Z,22.23
2023-04-20T04:15:28.717Z,24.17
2023-04-20T04:17:55.970Z,22.27
2023-04-20T04:20:22.498Z,23.30
2023-04-20T04:22:49.019Z,23.55
2023-04-20T04:25:15.572Z,27.60
2023-04-20T04:27:42.137Z,29.30
2023-04-20T04:30:08.939Z,24.42
2023-04-20T04:32:36.099Z,24.17
2023-04-20T04:35:02.657Z,19.77
2023-04-20T04:37:29.221Z,23.17
2023-04-20T04:39:55.774Z,22.65
2023-04-20T04:42:22.409Z,29.17
2023-04-20T04:44:49.068Z,47.42
2023-04-20T04:47:17.690Z,30.77
2023-04-20T04:49:45.595Z,32.17
2023-04-20T04:52:13.306Z,27.35
2023-04-20T04:54:39.914Z,28.48
2023-04-20T04:57:07.294Z,23.38
2023-04-20T04:59:33.788Z,21.98
2023-04-20T05:02:01.319Z,22.52
2023-04-20T05:04:30.329Z,22.15
2023-04-20T05:06:59.249Z,25.08
2023-04-20T05:09:33.560Z,24.23
2023-04-20T05:12:04.034Z,23.48
2023-04-20T05:14:31.561Z,22.45
2023-04-20T05:16:58.701Z,26.05
2023-04-20T05:19:25.160Z,24.10
2023-04-20T05:21:51.777Z,22.77
2023-04-20T05:24:19.473Z,32.42
2023-04-20T05:26:46.495Z,20.63
2023-04-20T05:29:13.006Z,21.23
2023-04-20T05:31:39.492Z,22.52
2023-04-20T05:34:06.151Z,23.45
2023-04-20T05:36:33.663Z,24.83
2023-04-20T05:39:00.199Z,28.33
2023-04-20T05:41:29.657Z,32.33
2023-04-20T05:43:57.019Z,26.77
2023-04-20T05:46:23.662Z,24.25
2023-04-20T05:48:50.243Z,27.40
2023-04-20T05:51:16.791Z,29.50
2023-04-20T05:53:43.262Z,34.85
2023-04-20T05:56:10.775Z,29.33
2023-04-20T05:58:37.624Z,27.42
2023-04-20T06:01:04.595Z,27.85
2023-04-20T06:03:32.172Z,26.55
2023-04-20T06:05:58.892Z,34.05
2023-04-20T06:08:25.454Z,23.05
2023-04-20T06:10:56.070Z,23.80
2023-04-20T06:13:22.773Z,21.92
2023-04-20T06:15:49.342Z,23.25
2023-04-20T06:18:15.975Z,22.50
2023-04-20T06:20:45.321Z,22.15
2023-04-20T06:23:11.978Z,19.52
2023-04-20T06:25:38.935Z,23.58
2023-04-20T06:28:05.620Z,16.75
2023-04-20T06:30:33.768Z,17.63
2023-04-20T06:33:01.175Z,21.65
2023-04-20T06:35:27.728Z,16.20
2023-04-20T06:37:56.394Z,17.92
2023-04-20T06:40:29.129Z,18.80
2023-04-20T06:42:55.779Z,24.05
2023-04-20T06:45:22.731Z,13.68
2023-04-20T06:47:49.236Z,18.58
2023-04-20T06:50:15.835Z,19.88
2023-04-20T06:52:42.350Z,15.82
2023-04-20T06:55:09.295Z,15.00
2023-04-20T06:57:37.328Z,18.65
2023-04-20T07:00:04.399Z,17.02
2023-04-20T07:02:31.185Z,22.02
2023-04-20T07:05:01.795Z,17.98
2023-04-20T07:07:28.346Z,23.65
2023-04-20T07:09:54.804Z,20.27
2023-04-20T07:12:21.275Z,21.33
2023-04-20T07:14:47.720Z,22.17
2023-04-20T07:17:14.210Z,23.80
2023-04-20T07:19:41.140Z,23.42
2023-04-20T07:22:07.640Z,25.67
2023-04-20T07:24:34.157Z,22.45
2023-04-20T07:27:01.463Z,18.83
2023-04-20T07:29:27.944Z,19.17
2023-04-20T07:31:54.453Z,19.55
2023-04-20T07:34:21.042Z,20.50
2023-04-20T07:36:47.553Z,20.10
2023-04-20T07:39:15.969Z,19.80
2023-04-20T07:41:42.713Z,18.10
2023-04-20T07:44:09.300Z,20.58
2023-04-20T07:46:35.887Z,24.60
2023-04-20T07:49:02.377Z,23.23
2023-04-20T07:51:30.364Z,23.95
2023-04-20T07:53:57.257Z,26.38
2023-04-20T07:56:24.624Z,17.45
2023-04-20T07:58:51.279Z,18.35
2023-04-20T08:01:17.721Z,13.55
2023-04-20T08:03:44.331Z,20.33
2023-04-20T08:06:11.009Z,18.60
2023-04-20T08:08:37.432Z,16.08
2023-04-20T08:11:08.220Z,18.00
2023-04-20T08:13:35.728Z,18.38
2023-04-20T08:16:02.279Z,18.80
2023-04-20T08:18:30.554Z,17.95
2023-04-20T08:20:57.115Z,19.67
2023-04-20T08:23:27.808Z,17.08
2023-04-20T08:25:54.959Z,22.88
2023-04-20T08:28:32.952Z,16.83
2023-04-20T08:31:00.743Z,18.90
2023-04-20T08:33:27.557Z,18.02
2023-04-20T08:35:54.223Z,18.55
2023-04-20T08:38:32.754Z,22.42
2023-04-20T08:41:00.226Z,22.27
2023-04-20T08:43:26.728Z,17.67
2023-04-20T08:45:57.402Z,20.75
2023-04-20T08:48:25.023Z,17.70
2023-04-20T08:50:51.609Z,16.88
2023-04-20T08:53:18.073Z,17.45
2023-04-20T08:55:44.532Z,16.25
2023-04-20T08:58:10.986Z,17.40
2023-04-20T09:00:45.963Z,19.33
2023-04-20T09:03:12.547Z,19.70
2023-04-20T09:05:40.006Z,25.52
2023-04-20T09:08:06.720Z,27.17
2023-04-20T09:10:40.496Z,24.25
2023-04-20T09:13:07.443Z,26.45
2023-04-20T09:15:34.056Z,30.45
2023-04-20T09:18:10.963Z,33.17
2023-04-20T09:20:37.499Z,30.85
2023-04-20T09:23:16.834Z,28.65
2023-04-20T09:25:50.029Z,31.17
2023-04-20T09:28:17.861Z,35.28
2023-04-20T09:30:48.565Z,28.67
2023-04-20T09:33:15.132Z,28.73
2023-04-20T09:35:42.446Z,31.98
2023-04-20T09:38:09.473Z,36.92
2023-04-20T09:40:36.394Z,30.15
2023-04-20T09:43:23.060Z,33.90
2023-04-20T09:45:50.449Z,30.17
2023-04-20T09:48:19.551Z,32.90
2023-04-20T09:50:49.783Z,27.20
2023-04-20T09:53:17.693Z,30.80
2023-04-20T09:55:51.315Z,26.40
2023-04-20T09:58:19.380Z,28.88
2023-04-20T10:00:46.170Z,25.80
2023-04-20T10:03:16.367Z,27.55
2023-04-20T10:05:43.023Z,29.50
2023-04-20T10:08:09.744Z,27.38
2023-04-20T10:10:47.069Z,27.30
2023-04-20T10:13:15.292Z,29.00
2023-04-20T10:15:42.356Z,26.45
2023-04-20T10:18:23.681Z,28.15
2023-04-20T10:20:51.174Z,24.50
2023-04-20T10:23:19.542Z,32.08
2023-04-20T10:25:56.799Z,27.42
2023-04-20T10:28:23.442Z,23.63
2023-04-20T10:30:50.811Z,26.48
2023-04-20T10:33:18.130Z,23.70
2023-04-20T10:35:48.691Z,23.90
2023-04-20T10:38:16.253Z,26.20
2023-04-20T10:40:42.801Z,19.90
2023-04-20T10:43:21.252Z,20.90
2023-04-20T10:45:48.190Z,19.92
2023-04-20T10:48:17.332Z,22.38
2023-04-20T10:50:44.487Z,20.50
2023-04-20T10:53:17.972Z,23.45
2023-04-20T10:55:44.445Z,19.05
2023-04-20T10:58:20.707Z,18.30
2023-04-20T11:00:56.645Z,18.13
2023-04-20T11:03:23.369Z,21.05
2023-04-20T11:05:50.318Z,23.63
2023-04-20T11:08:16.799Z,18.92
2023-04-20T11:10:43.437Z,18.85
2023-04-20T11:13:19.634Z,18.25
2023-04-20T11:15:46.364Z,19.95
2023-04-20T11:18:13.131Z,18.70
2023-04-20T11:21:00.049Z,16.15
2023-04-20T11:23:37.158Z,15.90
2023-04-20T11:26:03.592Z,18.65
2023-04-20T11:28:34.607Z,17.48
2023-04-20T11:31:01.173Z,18.48
2023-04-20T11:33:28.783Z,17.35
2023-04-20T11:35:56.566Z,19.40
2023-04-20T11:38:30.275Z,18.05
2023-04-20T11:40:57.329Z,16.23
2023-04-20T11:43:23.867Z,15.05
2023-04-20T11:45:50.425Z,19.23
2023-04-20T11:48:18.546Z,15.68
2023-04-20T11:50:45.185Z,17.10
2023-04-20T11:53:14.746Z,16.67
2023-04-20T11:55:41.866Z,14.23
2023-04-20T11:58:08.615Z,18.90
2023-04-20T12:00:35.233Z,14.45
2023-04-20T12:03:02.501Z,12.73
2023-04-20T12:05:29.759Z,13.00
2023-04-20T12:07:56.670Z,14.35
2023-04-20T12:10:23.398Z,14.05
2023-04-20T12:12:49.844Z,11.85
2023-04-20T12:15:16.349Z,17.63
2023-04-20T12:17:43.022Z,11.70
2023-04-20T12:20:12.186Z,12.30
2023-04-20T12:22:38.694Z,13.55
2023-04-20T12:25:06.233Z,21.67
2023-04-20T12:27:32.674Z,12.43
2023-04-20T12:29:59.187Z,15.18
2023-04-20T12:32:25.667Z,17.35
2023-04-20T12:34:52.214Z,14.52
2023-04-20T12:37:20.162Z,15.45
2023-04-20T12:39:46.647Z,18.95
2023-04-20T12:42:13.390Z,16.33
2023-04-20T12:44:39.872Z,19.05
2023-04-20T12:47:06.661Z,14.27
2023-04-20T12:49:33.836Z,15.38
2023-04-20T12:52:00.512Z,17.45
2023-04-20T12:54:26.992Z,14.10
2023-04-20T12:56:53.498Z,17.45
2023-04-20T12:59:20.252Z,12.45
2023-04-20T13:01:46.790Z,12.93
2023-04-20T13:04:15.939Z,17.90
2023-04-20T13:06:42.764Z,14.05
2023-04-20T13:09:09.382Z,14.60
2023-04-20T13:11:35.906Z,14.18
2023-04-20T13:14:02.438Z,12.73
2023-04-20T13:16:29.482Z,14.63
2023-04-20T13:18:56.156Z,14.82
2023-04-20T13:21:22.853Z,12.10
2023-04-20T13:23:49.248Z,17.23
2023-04-20T13:26:15.702Z,15.85
2023-04-20T13:28:42.226Z,12.85
2023-04-20T13:31:08.780Z,10.57
2023-04-20T13:33:35.842Z,12.70
2023-04-20T13:36:02.391Z,12.20
2023-04-20T13:38:28.966Z,13.23
2023-04-20T13:40:55.660Z,12.38
2023-04-20T13:43:22.404Z,14.27
2023-04-20T13:45:48.961Z,15.05
2023-04-20T13:48:15.600Z,10.35
2023-04-20T13:50:42.112Z,12.90
2023-04-20T13:53:08.646Z,13.07
2023-04-20T13:55:35.104Z,11.40
2023-04-20T13:58:01.670Z,18.50
2023-04-20T14:00:28.166Z,12.25
2023-04-20T14:02:54.763Z,10.32
2023-04-20T14:05:21.345Z,12.85
2023-04-20T14:07:47.784Z,8.30
2023-04-20T14:10:14.310Z,11.20
2023-04-20T14:12:40.918Z,9.93
2023-04-20T14:15:07.723Z,14.27
2023-04-20T14:17:34.562Z,13.70
2023-04-20T14:20:01.679Z,11.07
2023-04-20T14:22:34.206Z,8.73
2023-04-20T14:25:00.709Z,8.77
2023-04-20T14:27:27.321Z,11.57
2023-04-20T14:29:53.778Z,11.15
2023-04-20T14:32:20.310Z,9.35
2023-04-20T14:34:46.831Z,10.05
2023-04-20T14:37:13.271Z,16.65
2023-04-20T14:39:39.786Z,14.40
2023-04-20T14:42:06.324Z,13.02
2023-04-20T14:44:32.781Z,10.48
2023-04-20T14:47:03.758Z,9.52
2023-04-20T14:49:30.365Z,9.73
2023-04-20T14:51:56.802Z,10.82
2023-04-20T14:54:23.375Z,8.27
2023-04-20T14:56:49.870Z,17.67
2023-04-20T14:59:16.348Z,16.15
2023-04-20T15:01:51.583Z,10.77
2023-04-20T15:04:28.084Z,11.82
2023-04-20T15:06:54.586Z,12.85
2023-04-20T15:09:21.011Z,12.95
2023-04-20T15:11:47.496Z,14.98
2023-04-20T15:14:13.947Z,14.30
2023-04-20T15:16:40.828Z,12.25
2023-04-20T15:19:07.429Z,13.52
2023-04-20T15:21:33.924Z,13.20
2023-04-20T15:24:00.489Z,15.65
2023-04-20T15:26:26.999Z,11.10
2023-04-20T15:28:53.535Z,11.07
2023-04-20T15:31:19.979Z,12.57
2023-04-20T15:33:48.066Z,13.80
2023-04-20T15:36:17.620Z,13.60
2023-04-20T15:38:44.177Z,12.10
2023-04-20T15:41:10.870Z,15.63
2023-04-20T15:43:37.392Z,14.52
2023-04-20T15:46:03.975Z,17.35
2023-04-20T15:48:30.551Z,11.38
2023-04-20T15:50:57.372Z,12.25
2023-04-20T15:53:24.207Z,14.80
2023-04-20T15:55:50.821Z,11.38
2023-04-20T15:58:17.266Z,11.65
2023-04-20T16:00:43.744Z,11.95
2023-04-20T16:03:11.184Z,14.05
2023-04-20T16:05:37.749Z,14.18
2023-04-20T16:08:05.404Z,10.80
2023-04-20T16:10:31.866Z,11.25
2023-04-20T16:12:58.406Z,13.20
2023-04-20T16:15:24.986Z,15.63
2023-04-20T16:17:51.521Z,13.45
2023-04-20T16:20:19.457Z,10.85
2023-04-20T16:22:45.909Z,14.77
2023-04-20T16:25:19.034Z,15.50
2023-04-20T16:27:45.481Z,14.82
2023-04-20T16:30:12.330Z,13.07
2023-04-20T16:32:41.452Z,11.38
2023-04-20T16:35:09.026Z,14.20
2023-04-20T16:37:35.634Z,13.63
2023-04-20T16:40:02.526Z,14.77
2023-04-20T16:42:29.046Z,12.70
2023-04-20T16:44:55.819Z,11.77
2023-04-20T16:47:22.367Z,12.80
2023-04-20T16:49:48.867Z,11.23
2023-04-20T16:52:15.387Z,13.60
2023-04-20T16:54:41.894Z,14.98
2023-04-20T16:57:08.861Z,13.68
2023-04-20T16:59:35.324Z,17.65
2023-04-20T17:02:01.899Z,13.85
2023-04-20T17:04:28.585Z,14.77
2023-04-20T17:06:55.611Z,11.30
2023-04-20T17:09:22.994Z,11.13
2023-04-20T17:11:49.549Z,10.13
2023-04-20T17:14:16.953Z,11.18
2023-04-20T17:16:43.651Z,9.60
2023-04-20T17:19:10.275Z,12.57
2023-04-20T17:21:36.841Z,12.80
2023-04-20T17:24:03.449Z,12.20
2023-04-20T17:26:29.907Z,14.90
2023-04-20T17:28:56.480Z,16.10
2023-04-20T17:31:23.185Z,11.43
2023-04-20T17:33:49.779Z,18.42
2023-04-20T17:36:16.401Z,13.07
2023-04-20T17:38:43.260Z,10.82
2023-04-20T17:41:10.056Z,17.25
2023-04-20T17:43:40.343Z,12.00
2023-04-20T17:46:07.701Z,12.50
2023-04-20T17:48:34.353Z,11.45
2023-04-20T17:51:00.945Z,21.52
2023-04-20T17:53:27.530Z,12.25
2023-04-20T17:55:54.020Z,20.00
2023-04-20T17:58:20.624Z,16.05
2023-04-20T18:00:47.682Z,16.55
2023-04-20T18:03:15.001Z,15.18
2023-04-20T18:05:42.154Z,15.10
2023-04-20T18:08:10.266Z,16.58
2023-04-20T18:10:37.687Z,14.55
2023-04-20T18:13:04.504Z,14.13
2023-04-20T18:15:31.228Z,13.25
2023-04-20T18:17:57.734Z,14.65
2023-04-20T18:20:24.686Z,16.67
2023-04-20T18:22:51.190Z,14.63
2023-04-20T18:25:19.347Z,16.67
2023-04-20T18:27:46.019Z,19.25
2023-04-20T18:30:13.814Z,17.88
2023-04-20T18:32:40.474Z,15.40
2023-04-20T18:35:07.168Z,15.93
2023-04-20T18:37:33.719Z,17.70
2023-04-20T18:40:00.236Z,16.13
2023-04-20T18:42:26.707Z,13.23
2023-04-20T18:44:53.560Z,18.30
2023-04-20T18:47:22.114Z,19.33
2023-04-20T18:49:48.586Z,13.40
2023-04-20T18:52:15.035Z,19.13
2023-04-20T18:54:41.784Z,12.27
2023-04-20T18:57:08.389Z,21.65
2023-04-20T18:59:34.898Z,21.52
2023-04-20T19:02:01.490Z,15.63
2023-04-20T19:04:28.186Z,19.83
2023-04-20T19:06:54.732Z,22.45
2023-04-20T19:09:21.233Z,18.35
2023-04-20T19:11:47.744Z,20.33
2023-04-20T19:14:14.240Z,18.90
2023-04-20T19:16:40.748Z,19.13
2023-04-20T19:19:07.799Z,20.98
2023-04-20T19:21:34.328Z,16.58
2023-04-20T19:24:01.051Z,15.30
2023-04-20T19:26:27.526Z,16.60
2023-04-20T19:28:54.033Z,12.68
2023-04-20T19:31:20.584Z,17.73
2023-04-20T19:33:47.269Z,16.98
2023-04-20T19:36:13.705Z,16.25
2023-04-20T19:38:40.556Z,18.25
2023-04-20T19:41:07.136Z,19.63
2023-04-20T19:43:34.513Z,15.57
2023-04-20T19:46:01.042Z,18.48
2023-04-20T19:48:27.598Z,19.92
2023-04-20T19:50:56.250Z,19.58
2023-04-20T19:53:23.202Z,15.60
2023-04-20T19:55:49.725Z,19.90
2023-04-20T19:58:16.208Z,19.65
2023-04-20T20:00:42.643Z,19.05
2023-04-20T20:03:09.302Z,20.88
2023-04-20T20:05:35.906Z,14.88
2023-04-20T20:08:03.285Z,17.02
2023-04-20T20:10:29.926Z,20.65
2023-04-20T20:12:56.385Z,13.13
2023-04-20T20:15:22.784Z,13.55
2023-04-20T20:17:49.325Z,17.40
2023-04-20T20:20:15.860Z,14.05
2023-04-20T20:22:48.172Z,15.90
2023-04-20T20:25:15.555Z,15.48
2023-04-20T20:27:42.065Z,13.63
2023-04-20T20:30:08.932Z,14.68
2023-04-20T20:32:35.437Z,16.95
2023-04-20T20:35:01.924Z,14.60
2023-04-20T20:37:34.511Z,15.48
2023-04-20T20:40:07.360Z,17.35
2023-04-20T20:42:34.065Z,17.95
2023-04-20T20:45:00.999Z,13.32
2023-04-20T20:47:27.730Z,18.45
2023-04-20T20:49:54.338Z,13.70
2023-04-20T20:52:21.123Z,15.45
2023-04-20T20:54:47.687Z,17.10
2023-04-20T20:57:14.217Z,21.95
2023-04-20T20:59:40.969Z,17.10
2023-04-20T21:02:07.584Z,13.50
2023-04-20T21:04:34.407Z,15.30
2023-04-20T21:07:00.856Z,13.65
2023-04-20T21:09:27.648Z,18.15
2023-04-20T21:11:54.215Z,13.48
2023-04-20T21:14:20.748Z,16.45
2023-04-20T21:16:47.357Z,13.23
2023-04-20T21:19:13.932Z,17.92
2023-04-20T21:21:40.459Z,11.98
2023-04-20T21:24:06.978Z,16.20
2023-04-20T21:26:36.008Z,12.95
2023-04-20T21:29:03.480Z,17.98
2023-04-20T21:31:30.600Z,22.23
2023-04-20T21:33:57.710Z,21.98
2023-04-20T21:36:24.321Z,18.50
2023-04-20T21:38:53.255Z,18.02
2023-04-20T21:41:19.746Z,13.60
2023-04-20T21:43:46.351Z,16.45
2023-04-20T21:46:16.206Z,15.85
2023-04-20T21:48:42.704Z,18.15
2023-04-20T21:51:09.213Z,14.93
2023-04-20T21:53:35.742Z,16.13
2023-04-20T21:56:02.183Z,15.93
2023-04-20T21:58:28.721Z,17.02
2023-04-20T22:00:55.357Z,17.65
2023-04-20T22:03:22.163Z,14.73
2023-04-20T22:05:48.713Z,16.58
2023-04-20T22:08:15.288Z,11.48
2023-04-20T22:10:41.876Z,16.77
2023-04-20T22:13:09.134Z,10.75
2023-04-20T22:15:36.917Z,17.67
2023-04-20T22:18:04.161Z,13.85
2023-04-20T22:20:31.559Z,15.38
2023-04-20T22:22:58.201Z,14.40
2023-04-20T22:25:24.808Z,11.32
2023-04-20T22:27:51.301Z,15.18
2023-04-20T22:30:17.790Z,12.23
2023-04-20T22:32:44.332Z,15.75
2023-04-20T22:35:10.802Z,16.58
2023-04-20T22:37:37.351Z,11.25
2023-04-20T22:40:05.977Z,12.30
2023-04-20T22:42:32.610Z,12.88
2023-04-20T22:44:59.106Z,12.35
2023-04-20T22:47:25.799Z,13.98
2023-04-20T22:49:52.609Z,15.40
2023-04-20T22:52:19.043Z,13.93
2023-04-20T22:54:48.253Z,13.30
2023-04-20T22:57:15.721Z,16.83
2023-04-20T22:59:42.355Z,12.38
2023-04-20T23:02:08.936Z,11.07
2023-04-20T23:04:37.718Z,11.65
2023-04-20T23:07:05.073Z,15.55
2023-04-20T23:09:32.211Z,13.23
2023-04-20T23:11:59.568Z,16.23
2023-04-20T23:14:28.005Z,17.40
2023-04-20T23:16:54.551Z,15.27
2023-04-20T23:19:21.839Z,14.70
2023-04-20T23:21:49.595Z,15.02
2023-04-20T23:24:16.071Z,13.20
2023-04-20T23:26:43.762Z,14.57
2023-04-20T23:29:10.234Z,14.68
2023-04-20T23:31:36.828Z,12.95
2023-04-20T23:34:03.534Z,13.43
2023-04-20T23:36:30.073Z,11.20
2023-04-20T23:38:56.657Z,13.55
2023-04-20T23:41:23.080Z,16.70
2023-04-20T23:43:49.592Z,10.73
2023-04-20T23:46:17.170Z,17.30
2023-04-20T23:48:43.670Z,13.50
2023-04-20T23:51:10.318Z,14.85
2023-04-20T23:53:37.504Z,15.18
2023-04-20T23:56:04.485Z,17.63
2023-04-20T23:58:31.318Z,23.08
